Time;durP1;ratioP1;P1;durP2;ratioP2;P2;SDS_P1;SDS_P2;PMS_P1;PMS_P2;Temp;Humidity;BMP_temperature;BMP_pressure;BME280_temperature;BME280_humidity;BME280_pressure;Samples;Min_cycle;Max_cycle;Signal;HPM_P1;HPM_P2
2021/12/25 00:01:10;;;;;;;0.00;0.00;;;-1.70;99.90;;;;;;4918154;29;20097;-65
2021/12/25 00:03:38;;;;;;;0.00;0.00;;;-2.90;99.90;;;;;;4917539;28;20063;-65
2021/12/25 00:06:04;;;;;;;0.00;0.00;;;-1.70;99.90;;;;;;4920032;29;20047;-65
2021/12/25 00:08:31;;;;;;;0.00;0.00;;;-1.80;99.90;;;;;;4921525;29;20070;-65
2021/12/25 00:10:59;;;;;;;0.00;0.00;;;-1.50;99.90;;;;;;4920379;29;20462;-64
2021/12/25 00:13:24;;;;;;;0.00;0.00;;;-1.90;99.90;;;;;;4921195;28;20086;-65
2021/12/25 00:15:51;;;;;;;0.00;0.00;;;-2.00;99.90;;;;;;4920597;29;20099;-64
2021/12/25 00:18:19;;;;;;;0.00;0.00;;;-1.90;99.90;;;;;;4921001;28;20462;-64
2021/12/25 00:20:45;;;;;;;0.00;0.00;;;-1.90;99.90;;;;;;4920876;29;20070;-64
2021/12/25 00:23:11;;;;;;;0.00;0.00;;;-1.90;99.90;;;;;;4918430;29;20052;-65
2021/12/25 00:25:52;;;;;;;0.00;0.00;;;-2.00;99.90;;;;;;4920832;29;20039;-65
2021/12/25 00:28:59;;;;;;;0.00;0.00;;;-2.10;99.90;;;;;;4923142;29;20135;-65
2021/12/25 00:36:09;;;;;;;0.00;0.00;;;-1.90;99.90;;;;;;4939113;28;20051;-65
2021/12/25 00:38:37;;;;;;;0.00;0.00;;;-2.20;99.90;;;;;;4940013;28;20043;-65
2021/12/25 00:41:06;;;;;;;0.00;0.00;;;-2.20;99.90;;;;;;4939499;28;20189;-62
2021/12/25 00:43:32;;;;;;;0.00;0.00;;;-2.20;99.90;;;;;;4939653;28;20086;-65
2021/12/25 00:45:58;;;;;;;0.00;0.00;;;-2.30;99.90;;;;;;4939546;28;20135;-64
2021/12/25 00:48:24;;;;;;;0.00;0.00;;;-2.00;99.90;;;;;;4939746;28;20122;-64
2021/12/25 00:50:49;;;;;;;0.00;0.00;;;-1.30;99.90;;;;;;4939404;28;20474;-64
2021/12/25 00:53:15;;;;;;;0.00;0.00;;;-2.30;99.90;;;;;;4938878;28;20043;-64
2021/12/25 00:55:41;;;;;;;0.00;0.00;;;-2.40;99.90;;;;;;4938542;28;20071;-64
2021/12/25 00:58:06;;;;;;;0.00;0.00;;;-2.40;99.90;;;;;;4939816;28;20055;-65
2021/12/25 01:00:32;;;;;;;0.00;0.00;;;-2.40;99.90;;;;;;4939102;28;20051;-65
2021/12/25 01:02:58;;;;;;;0.00;0.00;;;-2.50;99.90;;;;;;4938662;28;20124;-64
2021/12/25 01:05:24;;;;;;;0.00;0.00;;;-2.50;99.90;;;;;;4937974;28;20502;-65
2021/12/25 01:07:49;;;;;;;0.00;0.00;;;-2.60;99.90;;;;;;4939460;28;20043;-64
2021/12/25 01:10:18;;;;;;;0.00;0.00;;;-3.00;99.90;;;;;;4937328;28;20506;-64
2021/12/25 01:15:42;;;;;;;0.00;0.00;;;-3.20;99.90;;;;;;4938999;28;20051;-64
2021/12/25 01:31:34;;;;;;;0.00;0.00;;;-2.90;99.90;;;;;;4923372;28;20052;-64
2021/12/25 01:39:39;;;;;;;0.00;0.00;;;-2.80;99.90;;;;;;4919591;28;20052;-64
2021/12/25 01:47:51;;;;;;;0.00;0.00;;;-2.90;99.90;;;;;;4919590;29;20462;-64
2021/12/25 01:50:20;;;;;;;0.00;0.00;;;-2.70;99.90;;;;;;4919148;29;20054;-63
2021/12/25 01:52:47;;;;;;;0.00;0.00;;;-3.10;99.90;;;;;;4919796;29;20446;-64
2021/12/25 01:55:22;;;;;;;0.00;0.00;;;-3.00;99.90;;;;;;4918973;29;20410;-64
2021/12/25 01:57:48;;;;;;;0.00;0.00;;;-2.90;99.90;;;;;;4918698;29;20058;-64
2021/12/25 02:00:22;;;;;;;0.00;0.00;;;-3.10;99.90;;;;;;4919926;29;20122;-65
2021/12/25 02:02:49;;;;;;;0.00;0.00;;;-3.10;99.90;;;;;;4919594;29;20106;-64
2021/12/25 02:05:15;;;;;;;0.00;0.00;;;-3.10;99.90;;;;;;4919077;29;20118;-64
2021/12/25 02:07:41;;;;;;;0.00;0.00;;;-3.10;99.90;;;;;;4918429;29;20087;-64
2021/12/25 02:10:07;;;;;;;0.00;0.00;;;-3.20;99.90;;;;;;4938172;28;20075;-65
2021/12/25 02:12:34;;;;;;;0.00;0.00;;;-3.20;99.90;;;;;;4938614;28;20057;-65
2021/12/25 02:15:09;;;;;;;0.00;0.00;;;-3.10;99.90;;;;;;4938455;28;20067;-64
2021/12/25 02:20:23;;;;;;;0.00;0.00;;;-3.20;99.90;;;;;;4938318;28;20764;-64
2021/12/25 02:22:51;;;;;;;0.00;0.00;;;-3.20;99.90;;;;;;4938016;28;20043;-64
2021/12/25 02:25:17;;;;;;;0.00;0.00;;;-3.20;99.90;;;;;;4937595;28;20051;-64
2021/12/25 02:27:44;;;;;;;0.00;0.00;;;-3.20;99.90;;;;;;4936108;28;20641;-64
2021/12/25 02:30:10;;;;;;;0.00;0.00;;;-3.80;99.90;;;;;;4926815;28;20056;-64
2021/12/25 02:32:36;;;;;;;0.00;0.00;;;-3.30;99.90;;;;;;4919094;29;20075;-65
2021/12/25 02:35:02;;;;;;;0.00;0.00;;;-3.20;99.90;;;;;;4919445;29;20133;-64
2021/12/25 02:37:28;;;;;;;0.00;0.00;;;-3.30;99.90;;;;;;4919643;28;20051;-64
2021/12/25 02:39:54;;;;;;;0.00;0.00;;;-3.30;99.90;;;;;;4915904;29;20562;-64
2021/12/25 02:42:20;;;;;;;0.00;0.00;;;-3.30;99.90;;;;;;4918954;29;20048;-64
2021/12/25 02:44:47;;;;;;;0.00;0.00;;;-3.30;99.90;;;;;;4918490;29;20048;-65
2021/12/25 02:47:19;;;;;;;0.00;0.00;;;-2.50;99.90;;;;;;4918973;28;20055;-61
2021/12/25 02:49:52;;;;;;;0.00;0.00;;;-3.50;99.90;;;;;;4917762;28;20169;-64
2021/12/25 02:52:18;;;;;;;0.00;0.00;;;-3.50;99.90;;;;;;4918735;28;20056;-64
2021/12/25 02:54:44;;;;;;;0.00;0.00;;;-3.50;99.90;;;;;;4917962;29;20474;-64
2021/12/25 02:57:11;;;;;;;0.00;0.00;;;-3.60;99.90;;;;;;4917944;29;20039;-64
2021/12/25 02:59:37;;;;;;;0.00;0.00;;;-3.60;99.90;;;;;;4918558;28;20461;-64
2021/12/25 03:02:13;;;;;;;0.00;0.00;;;-3.30;99.90;;;;;;4917555;28;20039;-59
2021/12/25 03:04:40;;;;;;;0.00;0.00;;;-3.60;99.90;;;;;;4917427;28;20122;-64
2021/12/25 03:07:07;;;;;;;0.00;0.00;;;-3.60;99.90;;;;;;4918702;28;20070;-65
2021/12/25 03:09:33;;;;;;;0.00;0.00;;;-3.70;99.90;;;;;;4917946;29;20061;-64
2021/12/25 03:11:59;;;;;;;0.00;0.00;;;-3.60;99.90;;;;;;4918995;29;20123;-64
2021/12/25 03:14:37;;;;;;;0.00;0.00;;;-3.70;99.90;;;;;;4917277;29;20767;-64
2021/12/25 03:17:03;;;;;;;0.00;0.00;;;-3.30;99.90;;;;;;4918108;29;20043;-59
2021/12/25 03:19:33;;;;;;;0.00;0.00;;;-3.80;99.90;;;;;;4918723;29;20043;-64
2021/12/25 03:22:01;;;;;;;0.00;0.00;;;-3.20;99.90;;;;;;4917743;29;20147;-64
2021/12/25 03:24:28;;;;;;;0.00;0.00;;;-3.30;99.90;;;;;;4917692;29;20243;-64
2021/12/25 03:26:56;;;;;;;0.00;0.00;;;-3.80;99.90;;;;;;4918243;29;20055;-64
2021/12/25 03:29:23;;;;;;;0.00;0.00;;;-3.70;99.90;;;;;;4928369;29;20079;-66
2021/12/25 03:31:50;;;;;;;0.00;0.00;;;-4.10;99.90;;;;;;4918051;28;20050;-64
2021/12/25 03:34:16;;;;;;;0.00;0.00;;;-3.80;99.90;;;;;;4918099;29;20336;-65
2021/12/25 03:36:42;;;;;;;0.00;0.00;;;-5.30;99.90;;;;;;4918147;29;20062;-64
2021/12/25 03:39:08;;;;;;;0.00;0.00;;;-3.80;99.90;;;;;;4917585;28;20052;-64
2021/12/25 03:41:35;;;;;;;0.00;0.00;;;-3.80;99.90;;;;;;4921863;29;20101;-64
2021/12/25 03:44:01;;;;;;;0.00;0.00;;;-3.90;99.90;;;;;;4921318;29;20685;-64
2021/12/25 03:46:31;;;;;;;0.00;0.00;;;-2.70;99.90;;;;;;4921740;29;20040;-65
2021/12/25 03:49:14;;;;;;;0.00;0.00;;;-3.90;99.90;;;;;;4921484;29;20056;-64
2021/12/25 04:00:00;;;;;;;0.00;0.00;;;-3.90;99.90;;;;;;4921560;28;20091;-64
2021/12/25 04:02:34;;;;;;;0.00;0.00;;;-3.90;99.90;;;;;;4921520;29;20446;-64
2021/12/25 04:05:02;;;;;;;0.00;0.00;;;-3.90;99.90;;;;;;4920452;29;20101;-64
2021/12/25 04:10:01;;;;;;;0.00;0.00;;;-4.00;99.90;;;;;;4920572;28;20056;-63
2021/12/25 04:12:27;;;;;;;0.00;0.00;;;-4.20;99.90;;;;;;4919343;29;20067;-64
2021/12/25 04:14:52;;;;;;;0.00;0.00;;;-3.80;99.90;;;;;;4920993;29;20685;-64
2021/12/25 04:17:18;;;;;;;0.00;0.00;;;-4.00;99.90;;;;;;4921427;29;20054;-63
2021/12/25 04:19:43;;;;;;;0.00;0.00;;;-4.00;99.90;;;;;;4920661;29;20062;-64
2021/12/25 04:22:16;;;;;;;0.00;0.00;;;-3.70;99.90;;;;;;4920397;28;20125;-63
2021/12/25 04:24:43;;;;;;;0.00;0.00;;;-4.10;99.90;;;;;;4919112;29;20109;-63
2021/12/25 04:27:13;;;;;;;0.00;0.00;;;-4.10;99.90;;;;;;4920906;28;20059;-63
2021/12/25 04:29:45;;;;;;;0.00;0.00;;;-4.00;99.90;;;;;;4930709;28;20112;-64
2021/12/25 05:02:00;;;;;;;0.00;0.00;;;-4.70;99.90;;;;;;4920423;29;20051;-63
2021/12/25 05:06:52;;;;;;;0.00;0.00;;;-4.40;99.90;;;;;;4920488;29;20059;-64
2021/12/25 05:09:17;;;;;;;0.00;0.00;;;-3.90;99.90;;;;;;4919278;29;20044;-63
2021/12/25 05:11:43;;;;;;;0.00;0.00;;;-2.50;99.90;;;;;;4919579;29;20044;-63
2021/12/25 05:14:09;;;;;;;0.00;0.00;;;-4.40;99.90;;;;;;4919037;29;20063;-64
2021/12/25 05:16:35;;;;;;;0.00;0.00;;;-3.60;99.90;;;;;;4920290;29;20048;-63
2021/12/25 05:19:00;;;;;;;0.00;0.00;;;-4.50;99.90;;;;;;4920491;29;20047;-65
2021/12/25 05:21:26;;;;;;;0.00;0.00;;;-4.10;99.90;;;;;;4919460;28;20474;-63
2021/12/25 05:23:52;;;;;;;0.00;0.00;;;-4.70;99.90;;;;;;4919165;28;20063;-63
2021/12/25 05:26:18;;;;;;;0.00;0.00;;;-4.60;99.90;;;;;;4919950;29;20118;-65
2021/12/25 05:28:46;;;;;;;0.00;0.00;;;-4.50;99.90;;;;;;4924132;29;20549;-63
2021/12/25 05:31:15;;;;;;;0.00;0.00;;;-4.80;99.90;;;;;;4924232;28;20138;-64
2021/12/25 05:33:42;;;;;;;0.00;0.00;;;-4.60;99.90;;;;;;4920013;29;20062;-62
2021/12/25 05:36:08;;;;;;;0.00;0.00;;;-4.80;99.90;;;;;;4920433;28;20407;-63
2021/12/25 05:38:35;;;;;;;0.00;0.00;;;-4.90;99.90;;;;;;4918140;28;20048;-66
2021/12/25 05:41:03;;;;;;;0.00;0.00;;;-4.70;99.90;;;;;;4920058;28;20090;-65
2021/12/25 05:43:29;;;;;;;0.00;0.00;;;-5.60;99.90;;;;;;4920120;29;20066;-66
2021/12/25 05:45:54;;;;;;;0.00;0.00;;;-4.70;99.90;;;;;;4919906;29;20039;-63
2021/12/25 05:48:20;;;;;;;0.00;0.00;;;-4.00;99.90;;;;;;4919048;29;20051;-64
2021/12/25 05:50:47;;;;;;;0.00;0.00;;;-4.70;99.90;;;;;;4919485;28;20103;-64
2021/12/25 05:53:13;;;;;;;0.00;0.00;;;-5.80;99.90;;;;;;4919402;28;20543;-62
2021/12/25 05:55:39;;;;;;;0.00;0.00;;;-4.60;99.90;;;;;;4919053;28;20086;-65
2021/12/25 05:58:07;;;;;;;0.00;0.00;;;-4.70;99.90;;;;;;4919602;29;20048;-65
2021/12/25 06:00:34;;;;;;;0.00;0.00;;;-4.60;99.90;;;;;;4919583;28;20091;-65
2021/12/25 06:03:00;;;;;;;0.00;0.00;;;-4.10;99.90;;;;;;4919111;29;20060;-64
2021/12/25 06:05:26;;;;;;;0.00;0.00;;;-4.60;99.90;;;;;;4919030;28;20060;-64
2021/12/25 06:07:52;;;;;;;0.00;0.00;;;-4.10;99.90;;;;;;4919507;29;20083;-65
2021/12/25 06:10:18;;;;;;;0.00;0.00;;;-5.30;99.90;;;;;;4918973;29;20071;-64
2021/12/25 06:12:47;;;;;;;0.00;0.00;;;-4.70;99.90;;;;;;4919077;29;20073;-64
2021/12/25 06:15:14;;;;;;;0.00;0.00;;;-4.70;99.90;;;;;;4918400;29;20048;-63
2021/12/25 06:17:41;;;;;;;0.00;0.00;;;;;;;;;;4919842;29;20044;-64
2021/12/25 06:20:07;;;;;;;0.00;0.00;;;-3.70;99.90;;;;;;4919138;29;20070;-64
2021/12/25 06:22:33;;;;;;;0.00;0.00;;;;;;;;;;4919022;29;20060;-64
2021/12/25 06:24:59;;;;;;;0.00;0.00;;;-4.80;99.90;;;;;;4918722;29;20530;-65
2021/12/25 06:27:25;;;;;;;0.00;0.00;;;-4.70;99.90;;;;;;4919414;29;20119;-65
2021/12/25 06:29:51;;;;;;;0.00;0.00;;;-4.70;99.90;;;;;;4929756;29;20055;-66
2021/12/25 06:32:18;;;;;;;0.00;0.00;;;-4.70;99.90;;;;;;4918339;29;20040;-65
2021/12/25 06:34:43;;;;;;;0.00;0.00;;;-4.90;99.90;;;;;;4919219;29;20086;-64
2021/12/25 06:37:09;;;;;;;0.00;0.00;;;-4.80;99.90;;;;;;4918882;28;20098;-65
2021/12/25 06:39:35;;;;;;;0.00;0.00;;;-4.30;99.90;;;;;;4918475;29;20052;-63
2021/12/25 06:42:01;;;;;;;0.00;0.00;;;-3.60;99.90;;;;;;4918080;28;20658;-64
2021/12/25 06:44:27;;;;;;;0.00;0.00;;;-4.30;99.90;;;;;;4919061;28;20097;-64
2021/12/25 06:46:57;;;;;;;0.00;0.00;;;-4.90;99.90;;;;;;4918991;28;20130;-65
2021/12/25 06:49:23;;;;;;;0.00;0.00;;;-4.70;99.90;;;;;;4918466;29;20381;-65
2021/12/25 06:51:50;;;;;;;0.00;0.00;;;-4.80;99.90;;;;;;4917864;28;20077;-64
2021/12/25 06:54:16;;;;;;;0.00;0.00;;;-4.50;99.90;;;;;;4917811;29;20055;-64
2021/12/25 06:56:44;;;;;;;0.00;0.00;;;-6.60;99.90;;;;;;4918834;29;20039;-64
2021/12/25 06:59:10;;;;;;;0.00;0.00;;;-5.30;99.90;;;;;;4918229;29;20055;-65
2021/12/25 07:01:36;;;;;;;0.00;0.00;;;-4.80;99.90;;;;;;4916985;29;20061;-64
2021/12/25 07:04:03;;;;;;;0.00;0.00;;;-5.00;99.90;;;;;;4918732;29;20055;-61
2021/12/25 07:06:29;;;;;;;0.00;0.00;;;-5.00;99.90;;;;;;4918956;28;20066;-64
2021/12/25 07:08:54;;;;;;;0.00;0.00;;;-4.90;99.90;;;;;;4916979;29;20114;-65
2021/12/25 07:11:20;;;;;;;0.00;0.00;;;-5.00;99.90;;;;;;4918324;29;20142;-64
2021/12/25 07:13:47;;;;;;;0.00;0.00;;;-4.40;99.90;;;;;;4917427;29;20044;-64
2021/12/25 07:16:13;;;;;;;0.00;0.00;;;-4.80;99.90;;;;;;4918693;29;20083;-63
2021/12/25 07:18:39;;;;;;;0.00;0.00;;;-5.00;99.90;;;;;;4917462;29;20048;-63
2021/12/25 07:21:05;;;;;;;0.00;0.00;;;-3.90;99.90;;;;;;4918337;29;20048;-63
2021/12/25 07:23:32;;;;;;;0.00;0.00;;;-5.00;99.90;;;;;;4917894;29;20553;-63
2021/12/25 07:25:58;;;;;;;0.00;0.00;;;-5.10;99.90;;;;;;4918584;28;20052;-63
2021/12/25 07:28:25;;;;;;;0.00;0.00;;;-5.10;99.90;;;;;;4920702;29;20051;-64
2021/12/25 07:30:51;;;;;;;0.00;0.00;;;-5.70;99.90;;;;;;4925615;28;20047;-63
2021/12/25 07:33:18;;;;;;;0.00;0.00;;;-4.90;99.90;;;;;;4918625;29;20050;-64
2021/12/25 07:35:43;;;;;;;0.00;0.00;;;-5.30;99.90;;;;;;4917371;29;20755;-64
2021/12/25 07:38:09;;;;;;;0.00;0.00;;;-5.10;99.90;;;;;;4916150;28;20055;-63
2021/12/25 07:40:36;;;;;;;0.00;0.00;;;-5.10;99.90;;;;;;4917965;29;20658;-63
2021/12/25 07:43:01;;;;;;;0.00;0.00;;;-5.40;99.90;;;;;;4918391;29;20039;-63
2021/12/25 07:45:27;;;;;;;0.00;0.00;;;-5.00;99.90;;;;;;4916070;29;20510;-64
2021/12/25 07:47:59;;;;;;;0.00;0.00;;;-6.00;99.90;;;;;;4917513;29;20093;-66
2021/12/25 07:50:27;;;;;;;0.00;0.00;;;-2.70;99.90;;;;;;4916646;29;20051;-64
2021/12/25 07:52:53;;;;;;;0.00;0.00;;;-5.20;99.90;;;;;;4917613;29;20059;-63
2021/12/25 07:55:19;;;;;;;0.00;0.00;;;-5.20;99.90;;;;;;4916978;28;20047;-63
2021/12/25 07:57:45;;;;;;;0.00;0.00;;;-5.50;99.90;;;;;;4918474;29;20409;-63
2021/12/25 08:00:13;;;;;;;0.00;0.00;;;-5.20;99.90;;;;;;4917587;28;20458;-64
2021/12/25 08:02:42;;;;;;;0.00;0.00;;;-4.80;99.90;;;;;;4916056;29;20055;-64
2021/12/25 08:05:08;;;;;;;0.00;0.00;;;-4.80;99.90;;;;;;4918296;29;20071;-64
2021/12/25 08:07:34;;;;;;;0.00;0.00;;;-4.40;99.90;;;;;;4916608;29;20756;-63
2021/12/25 08:10:13;;;;;;;0.00;0.00;;;-5.30;99.90;;;;;;4917866;28;20048;-63
2021/12/25 08:12:44;;;;;;;0.00;0.00;;;-6.90;99.90;;;;;;4917838;28;20105;-66
2021/12/25 08:15:11;;;;;;;0.00;0.00;;;-4.50;99.90;;;;;;4917010;29;20124;-63
2021/12/25 08:17:37;;;;;;;0.00;0.00;;;-4.60;99.90;;;;;;4917872;28;20043;-63
2021/12/25 08:20:04;;;;;;;0.00;0.00;;;-4.80;99.90;;;;;;4916484;29;20044;-63
2021/12/25 08:22:30;;;;;;;0.00;0.00;;;-4.90;99.90;;;;;;4932724;29;20083;-63
2021/12/25 08:24:56;;;;;;;0.00;0.00;;;-5.20;99.90;;;;;;4917288;29;20782;-63
2021/12/25 08:27:21;;;;;;;0.00;0.00;;;-5.20;99.90;;;;;;4921371;28;20591;-63
2021/12/25 08:29:47;;;;;;;0.00;0.00;;;-5.10;99.90;;;;;;4930523;28;20097;-63
2021/12/25 08:32:13;;;;;;;0.00;0.00;;;-4.60;99.90;;;;;;4920894;28;20102;-64
2021/12/25 08:34:38;;;;;;;0.00;0.00;;;-5.20;99.90;;;;;;5002977;28;20110;-64
2021/12/25 08:37:05;;;;;;;0.00;0.00;;;-5.40;99.90;;;;;;4920194;29;20090;-64
2021/12/25 08:39:31;;;;;;;0.00;0.00;;;-5.00;99.90;;;;;;4920634;29;20052;-64
2021/12/25 08:42:02;;;;;;;0.00;0.00;;;-4.70;99.90;;;;;;4920495;28;20232;-63
2021/12/25 08:44:39;;;;;;;0.00;0.00;;;-5.00;99.90;;;;;;4921176;29;20629;-63
2021/12/25 08:47:08;;;;;;;0.00;0.00;;;-5.00;99.90;;;;;;4920524;29;20560;-64
2021/12/25 08:49:36;;;;;;;0.00;0.00;;;-4.30;99.90;;;;;;4920982;28;20051;-63
2021/12/25 08:52:07;;;;;;;0.00;0.00;;;-5.10;99.90;;;;;;4920577;28;20113;-63
2021/12/25 08:54:33;;;;;;;0.00;0.00;;;-4.90;99.90;;;;;;4918125;29;20059;-63
2021/12/25 08:57:00;;;;;;;0.00;0.00;;;-4.80;99.90;;;;;;4921055;28;20055;-64
2021/12/25 08:59:27;;;;;;;0.00;0.00;;;-4.80;99.90;;;;;;4920317;28;20052;-63
2021/12/25 09:01:53;;;;;;;0.00;0.00;;;-4.30;99.90;;;;;;4918246;29;20123;-63
2021/12/25 09:04:19;;;;;;;0.00;0.00;;;-4.70;99.90;;;;;;4920082;29;20056;-63
2021/12/25 09:06:45;;;;;;;0.00;0.00;;;-4.60;99.90;;;;;;4920094;28;20516;-63
2021/12/25 09:09:11;;;;;;;0.00;0.00;;;-4.40;99.90;;;;;;4919825;29;20047;-63
2021/12/25 09:11:41;;;;;;;0.00;0.00;;;-4.30;99.90;;;;;;4919114;29;20055;-66
2021/12/25 09:14:07;;;;;;;0.00;0.00;;;-5.70;99.90;;;;;;4919046;29;20051;-65
2021/12/25 09:16:33;;;;;;;0.00;0.00;;;-3.70;99.90;;;;;;4920480;28;20051;-62
2021/12/25 09:18:59;;;;;;;0.00;0.00;;;-3.60;99.90;;;;;;4920534;28;20474;-63
2021/12/25 09:21:25;;;;;;;0.00;0.00;;;-3.10;99.90;;;;;;4919499;28;20438;-63
2021/12/25 09:23:51;;;;;;;0.00;0.00;;;-3.20;99.90;;;;;;4918947;29;20048;-63
2021/12/25 09:26:17;;;;;;;0.00;0.00;;;-3.60;99.90;;;;;;4920420;28;20052;-62
2021/12/25 09:28:44;;;;;;;0.00;0.00;;;-3.60;99.90;;;;;;4936560;29;20039;-62
2021/12/25 09:31:09;;;;;;;0.00;0.00;;;-3.50;99.90;;;;;;4924766;28;20550;-62
2021/12/25 09:33:35;;;;;;;0.00;0.00;;;-3.50;99.90;;;;;;4920149;29;20131;-66
2021/12/25 09:36:04;;;;;;;0.00;0.00;;;;;;;;;;4920067;29;20170;-65
2021/12/25 09:38:31;;;;;;;0.00;0.00;;;-2.80;99.90;;;;;;4918722;28;20418;-66
2021/12/25 09:40:58;;;;;;;0.00;0.00;;;-0.30;99.90;;;;;;4919849;28;20035;-65
2021/12/25 09:43:25;;;;;;;0.00;0.00;;;-0.70;99.90;;;;;;4919758;28;20419;-63
2021/12/25 09:45:51;;;;;;;0.00;0.00;;;1.60;99.90;;;;;;4918698;29;20059;-65
2021/12/25 09:48:17;;;;;;;0.00;0.00;;;1.10;99.90;;;;;;4918719;29;20052;-63
2021/12/25 09:50:43;;;;;;;0.00;0.00;;;0.30;99.90;;;;;;4919987;29;20047;-64
2021/12/25 09:53:12;;;;;;;0.00;0.00;;;3.40;99.90;;;;;;4918924;29;20044;-63
2021/12/25 09:55:38;;;;;;;0.00;0.00;;;3.00;99.90;;;;;;4920346;28;20055;-64
2021/12/25 09:58:05;;;;;;;0.00;0.00;;;2.90;99.90;;;;;;4917238;29;20090;-64
2021/12/25 10:00:33;;;;;;;0.00;0.00;;;2.80;99.90;;;;;;4919936;29;20063;-63
2021/12/25 10:02:59;;;;;;;0.00;0.00;;;3.90;99.90;;;;;;4919427;28;20123;-63
2021/12/25 10:05:38;;;;;;;0.00;0.00;;;3.00;99.90;;;;;;4918984;28;20812;-64
2021/12/25 10:08:11;;;;;;;0.00;0.00;;;4.10;99.90;;;;;;4918876;29;20054;-64
2021/12/25 10:10:40;;;;;;;0.00;0.00;;;4.10;99.90;;;;;;4919310;29;20127;-63
2021/12/25 10:13:21;;;;;;;0.00;0.00;;;4.70;99.90;;;;;;4918798;29;20052;-63
2021/12/25 10:15:48;;;;;;;0.00;0.00;;;4.30;99.90;;;;;;4919676;28;20051;-64
2021/12/25 10:18:14;;;;;;;0.00;0.00;;;3.70;99.90;;;;;;4919533;29;20230;-62
2021/12/25 10:20:40;;;;;;;0.00;0.00;;;4.10;99.90;;;;;;4918442;29;20414;-63
2021/12/25 10:23:21;;;;;;;0.00;0.00;;;3.90;99.90;;;;;;4918498;28;20058;-63
2021/12/25 10:25:53;;;;;;;0.00;0.00;;;3.00;99.90;;;;;;4919592;29;20082;-63
2021/12/25 10:28:31;;;;;;;0.00;0.00;;;3.40;99.90;;;;;;4921529;29;20056;-64
2021/12/25 10:31:03;;;;;;;0.00;0.00;;;3.90;99.90;;;;;;4925756;28;20048;-64
2021/12/25 10:33:44;;;;;;;0.00;0.00;;;3.80;99.90;;;;;;4917023;28;20044;-65
2021/12/25 10:36:22;;;;;;;0.00;0.00;;;4.80;99.90;;;;;;4946665;28;20048;-65
2021/12/25 10:39:03;;;;;;;0.00;0.00;;;4.60;99.90;;;;;;4947560;28;20082;-65
2021/12/25 10:41:30;;;;;;;0.00;0.00;;;4.90;99.90;;;;;;4938586;28;20084;-65
2021/12/25 10:44:22;;;;;;;0.00;0.00;;;5.00;99.90;;;;;;4937833;28;20457;-64
2021/12/25 10:46:52;;;;;;;0.00;0.00;;;4.90;99.90;;;;;;4938339;28;20048;-64
2021/12/25 10:49:19;;;;;;;0.00;0.00;;;4.40;99.90;;;;;;4936518;28;20089;-64
2021/12/25 10:51:45;;;;;;;0.00;0.00;;;4.80;99.90;;;;;;4936975;28;20078;-65
2021/12/25 10:54:13;;;;;;;0.00;0.00;;;4.90;99.90;;;;;;4937010;28;20083;-65
2021/12/25 10:56:41;;;;;;;0.00;0.00;;;4.90;99.90;;;;;;4936943;28;20061;-65
2021/12/25 10:59:12;;;;;;;0.00;0.00;;;4.90;99.90;;;;;;4937856;28;20112;-64
2021/12/25 11:01:48;;;;;;;0.00;0.00;;;5.50;99.90;;;;;;4937372;28;20053;-64
2021/12/25 11:04:26;;;;;;;0.00;0.00;;;5.60;99.90;;;;;;4937366;28;20136;-63
2021/12/25 11:06:51;;;;;;;0.00;0.00;;;5.30;99.90;;;;;;4935338;29;20683;-65
2021/12/25 11:09:17;;;;;;;0.00;0.00;;;5.70;99.90;;;;;;4936939;28;20051;-64
2021/12/25 11:11:43;;;;;;;0.00;0.00;;;6.00;99.90;;;;;;4937973;28;20047;-64
2021/12/25 11:14:13;;;;;;;0.00;0.00;;;6.10;99.90;;;;;;4937755;28;20055;-65
2021/12/25 11:16:40;;;;;;;0.00;0.00;;;5.50;99.90;;;;;;4937201;28;20126;-64
2021/12/25 11:19:27;;;;;;;0.00;0.00;;;5.50;99.90;;;;;;4937390;28;20051;-64
2021/12/25 11:21:54;;;;;;;0.00;0.00;;;5.70;99.90;;;;;;4936782;28;20055;-64
2021/12/25 11:24:31;;;;;;;0.00;0.00;;;5.30;99.90;;;;;;4936466;28;20082;-64
2021/12/25 11:26:59;;;;;;;0.00;0.00;;;5.60;99.90;;;;;;4937542;28;20047;-65
2021/12/25 11:29:28;;;;;;;0.00;0.00;;;6.20;99.90;;;;;;4930175;28;20043;-64
2021/12/25 11:31:56;;;;;;;0.00;0.00;;;5.30;99.90;;;;;;4918288;29;20070;-64
2021/12/25 11:34:22;;;;;;;0.00;0.00;;;5.10;99.90;;;;;;4917133;29;20089;-64
2021/12/25 11:36:50;;;;;;;0.00;0.00;;;5.00;99.90;;;;;;4918084;29;20082;-66
2021/12/25 11:39:19;;;;;;;0.00;0.00;;;4.80;99.90;;;;;;4916789;29;20051;-65
2021/12/25 11:41:45;;;;;;;0.00;0.00;;;4.60;99.90;;;;;;4918153;29;20293;-65
2021/12/25 11:44:42;;;;;;;0.00;0.00;;;4.60;99.90;;;;;;4918308;29;20044;-65
2021/12/25 11:47:27;;;;;;;0.00;0.00;;;5.80;99.90;;;;;;4936713;28;20142;-65
2021/12/25 11:49:55;;;;;;;;;;;5.20;99.90;;;;;;4970549;28;20476;-65
2021/12/25 11:52:25;;;;;;;0.00;0.00;;;4.60;99.90;;;;;;4977906;28;19921;-65
2021/12/25 11:58:36;;;;;;;0.00;0.00;;;4.70;99.90;;;;;;4969990;28;20050;-65
2021/12/25 12:00:42;;;;;;;0.00;0.00;;;4.40;99.90;;;;;;4943490;28;20058;-65
2021/12/25 12:03:08;;;;;;;0.00;0.00;;;3.90;99.90;;;;;;4940619;28;20097;-66
2021/12/25 12:05:35;;;;;;;0.00;0.00;;;4.10;99.90;;;;;;4940438;28;20791;-66
2021/12/25 12:08:06;;;;;;;0.00;0.00;;;3.70;99.90;;;;;;4940097;28;20130;-67
2021/12/25 12:10:44;;;;;;;0.00;0.00;;;2.80;99.90;;;;;;4939542;28;20055;-66
2021/12/25 12:13:31;;;;;;;0.00;0.00;;;2.80;99.90;;;;;;4940153;28;20043;-66
2021/12/25 12:16:00;;;;;;;0.00;0.00;;;2.20;99.90;;;;;;4939732;28;20058;-65
2021/12/25 12:18:26;;;;;;;0.00;0.00;;;2.10;99.90;;;;;;4940005;28;20039;-65
2021/12/25 12:20:57;;;;;;;0.00;0.00;;;2.00;99.90;;;;;;4940363;28;20062;-65
2021/12/25 12:24:07;;;;;;;0.00;0.00;;;1.70;99.90;;;;;;4938718;28;20117;-66
2021/12/25 12:26:53;;;;;;;0.00;0.00;;;2.00;99.90;;;;;;4939673;28;20480;-65
2021/12/25 12:29:54;;;;;;;0.00;0.00;;;2.40;99.90;;;;;;4936705;29;20066;-66
2021/12/25 12:32:20;;;;;;;0.00;0.00;;;2.80;99.90;;;;;;5041412;28;20091;-65
2021/12/25 12:34:47;;;;;;;0.00;0.00;;;2.40;99.90;;;;;;4948869;28;20079;-65
2021/12/25 12:37:16;;;;;;;0.00;0.00;;;2.50;99.90;;;;;;4920303;29;20051;-66
2021/12/25 12:39:59;;;;;;;0.00;0.00;;;2.10;99.90;;;;;;4916210;29;20329;-65
2021/12/25 12:42:57;;;;;;;0.00;0.00;;;2.30;99.90;;;;;;4928234;29;20070;-65
2021/12/25 12:45:27;;;;;;;0.00;0.00;;;1.80;99.90;;;;;;4930801;28;20062;-65
2021/12/25 12:48:20;;;;;;;0.00;0.00;;;1.40;99.90;;;;;;4920345;29;20109;-65
2021/12/25 12:50:55;;;;;;;0.00;0.00;;;1.50;99.90;;;;;;4934379;28;20056;-65
2021/12/25 12:53:22;;;;;;;0.00;0.00;;;1.50;99.90;;;;;;4919888;29;20055;-65
2021/12/25 12:55:50;;;;;;;0.00;0.00;;;1.30;99.90;;;;;;4924914;28;20071;-65
2021/12/25 12:58:20;;;;;;;0.00;0.00;;;1.40;99.90;;;;;;4933623;28;20036;-65
2021/12/25 13:00:56;;;;;;;0.00;0.00;;;1.40;99.90;;;;;;4920057;29;20044;-65
2021/12/25 13:03:24;;;;;;;0.00;0.00;;;0.80;99.90;;;;;;4917500;29;20083;-65
2021/12/25 13:06:02;;;;;;;0.00;0.00;;;0.60;99.90;;;;;;4920278;28;20059;-65
2021/12/25 13:08:32;;;;;;;0.00;0.00;;;1.30;99.90;;;;;;4920294;28;20134;-65
2021/12/25 13:11:07;;;;;;;0.00;0.00;;;0.60;99.90;;;;;;4918618;29;20051;-65
2021/12/25 13:13:39;;;;;;;0.00;0.00;;;0.50;99.90;;;;;;4918342;28;20170;-66
2021/12/25 13:16:09;;;;;;;0.00;0.00;;;0.50;99.90;;;;;;4920140;29;20542;-66
2021/12/25 13:18:37;;;;;;;0.00;0.00;;;0.30;99.90;;;;;;4919313;28;20137;-65
2021/12/25 13:21:09;;;;;;;0.00;0.00;;;0.00;99.90;;;;;;4919972;29;20044;-66
2021/12/25 13:23:46;;;;;;;0.00;0.00;;;0.10;99.90;;;;;;4919295;29;20075;-66
2021/12/25 13:26:14;;;;;;;0.00;0.00;;;0.10;99.90;;;;;;4920203;28;20800;-66
2021/12/25 13:28:42;;;;;;;0.00;0.00;;;0.00;99.90;;;;;;4925681;28;20043;-65
2021/12/25 13:31:18;;;;;;;0.00;0.00;;;0.00;99.90;;;;;;4925369;28;20055;-66
2021/12/25 13:33:57;;;;;;;0.00;0.00;;;-0.50;99.90;;;;;;4920107;28;20051;-65
2021/12/25 13:36:26;;;;;;;0.00;0.00;;;-0.30;99.90;;;;;;4919907;29;20048;-65
2021/12/25 13:38:55;;;;;;;0.00;0.00;;;-0.20;99.90;;;;;;4917986;29;20047;-66
2021/12/25 13:41:52;;;;;;;0.00;0.00;;;-0.40;99.90;;;;;;4919879;28;20063;-66
2021/12/25 13:44:28;;;;;;;0.00;0.00;;;-0.30;99.90;;;;;;4918976;28;20135;-65
2021/12/25 13:47:01;;;;;;;0.00;0.00;;;-0.50;99.90;;;;;;4920137;28;20078;-65
2021/12/25 13:49:34;;;;;;;0.00;0.00;;;-0.60;99.90;;;;;;4919783;29;20054;-65
2021/12/25 13:52:09;;;;;;;0.00;0.00;;;-0.80;99.90;;;;;;4918840;29;20131;-65
2021/12/25 13:54:37;;;;;;;;;;;-0.50;99.90;;;;;;4920047;29;20047;-65
2021/12/25 13:57:03;;;;;;;0.00;0.00;;;-0.50;99.90;;;;;;4919577;28;19922;-65
2021/12/25 13:59:29;;;;;;;0.00;0.00;;;-0.10;99.90;;;;;;4918868;28;20043;-65
2021/12/25 14:02:01;;;;;;;0.00;0.00;;;-0.60;99.90;;;;;;4918075;28;20055;-65
2021/12/25 14:04:26;;;;;;;0.00;0.00;;;-0.80;99.90;;;;;;4923491;28;20146;-65
2021/12/25 14:06:52;;;;;;;0.00;0.00;;;-0.60;99.90;;;;;;4923529;29;20565;-65
2021/12/25 14:09:18;;;;;;;0.00;0.00;;;-0.80;99.90;;;;;;4925771;28;20059;-65
2021/12/25 14:11:55;;;;;;;0.00;0.00;;;-1.10;99.90;;;;;;4925439;28;20603;-65
2021/12/25 14:14:24;;;;;;;0.00;0.00;;;-0.20;99.90;;;;;;4924743;28;20134;-65
2021/12/25 14:16:50;;;;;;;0.00;0.00;;;-1.10;99.90;;;;;;4925113;28;20129;-65
2021/12/25 14:19:17;;;;;;;0.00;0.00;;;-0.40;99.90;;;;;;4925501;29;20049;-64
2021/12/25 14:22:11;;;;;;;0.00;0.00;;;-0.80;99.90;;;;;;4925656;28;20035;-65